sensor_id;sensor_type;location;lat;lon;timestamp;temperature;humidity
58781;SHT30;45243;51.548;6.990;2022-07-12T00:00:26;14.41;95.41
58781;SHT30;45243;51.548;6.990;2022-07-12T00:02:51;14.37;95.42
58781;SHT30;45243;51.548;6.990;2022-07-12T00:05:16;14.34;95.34
58781;SHT30;45243;51.548;6.990;2022-07-12T00:07:42;14.32;95.35
58781;SHT30;45243;51.548;6.990;2022-07-12T00:10:07;14.25;95.24
58781;SHT30;45243;51.548;6.990;2022-07-12T00:12:33;14.22;95.26
58781;SHT30;45243;51.548;6.990;2022-07-12T00:14:59;14.17;95.35
58781;SHT30;45243;51.548;6.990;2022-07-12T00:17:24;14.11;95.30
58781;SHT30;45243;51.548;6.990;2022-07-12T00:19:49;14.08;95.28
58781;SHT30;45243;51.548;6.990;2022-07-12T00:22:15;14.03;95.18
58781;SHT30;45243;51.548;6.990;2022-07-12T00:24:41;13.97;95.16
58781;SHT30;45243;51.548;6.990;2022-07-12T00:27:07;13.94;95.12
58781;SHT30;45243;51.548;6.990;2022-07-12T00:29:32;13.91;95.11
58781;SHT30;45243;51.548;6.990;2022-07-12T00:31:57;13.86;95.28
58781;SHT30;45243;51.548;6.990;2022-07-12T00:34:23;13.82;95.28
58781;SHT30;45243;51.548;6.990;2022-07-12T00:36:48;13.79;95.31
58781;SHT30;45243;51.548;6.990;2022-07-12T00:39:13;13.76;95.19
58781;SHT30;45243;51.548;6.990;2022-07-12T00:41:39;13.73;95.19
58781;SHT30;45243;51.548;6.990;2022-07-12T00:44:04;13.70;95.36
58781;SHT30;45243;51.548;6.990;2022-07-12T00:46:30;13.69;95.28
58781;SHT30;45243;51.548;6.990;2022-07-12T00:48:56;13.60;95.50
58781;SHT30;45243;51.548;6.990;2022-07-12T00:51:22;13.58;95.38
58781;SHT30;45243;51.548;6.990;2022-07-12T00:53:47;13.55;95.54
58781;SHT30;45243;51.548;6.990;2022-07-12T00:56:15;13.49;95.32
58781;SHT30;45243;51.548;6.990;2022-07-12T00:58:41;13.48;95.19
58781;SHT30;45243;51.548;6.990;2022-07-12T01:01:08;13.43;95.26
58781;SHT30;45243;51.548;6.990;2022-07-12T01:03:34;13.38;95.22
58781;SHT30;45243;51.548;6.990;2022-07-12T01:05:59;13.36;95.28
58781;SHT30;45243;51.548;6.990;2022-07-12T01:08:25;13.32;95.38
58781;SHT30;45243;51.548;6.990;2022-07-12T01:10:51;13.34;95.53
58781;SHT30;45243;51.548;6.990;2022-07-12T01:13:17;13.32;95.55
58781;SHT30;45243;51.548;6.990;2022-07-12T01:15:42;13.32;95.55
58781;SHT30;45243;51.548;6.990;2022-07-12T01:18:09;13.31;95.48
58781;SHT30;45243;51.548;6.990;2022-07-12T01:20:35;13.24;95.42
58781;SHT30;45243;51.548;6.990;2022-07-12T01:23:01;13.21;95.38
58781;SHT30;45243;51.548;6.990;2022-07-12T01:25:28;13.17;95.39
58781;SHT30;45243;51.548;6.990;2022-07-12T01:27:53;13.12;95.41
58781;SHT30;45243;51.548;6.990;2022-07-12T01:30:19;13.14;95.49
58781;SHT30;45243;51.548;6.990;2022-07-12T01:32:45;13.08;95.51
58781;SHT30;45243;51.548;6.990;2022-07-12T01:35:11;13.08;95.56
58781;SHT30;45243;51.548;6.990;2022-07-12T01:37:38;13.10;95.60
58781;SHT30;45243;51.548;6.990;2022-07-12T01:40:06;13.07;95.66
58781;SHT30;45243;51.548;6.990;2022-07-12T01:42:33;13.06;95.64
58781;SHT30;45243;51.548;6.990;2022-07-12T01:45:00;13.04;95.63
58781;SHT30;45243;51.548;6.990;2022-07-12T01:47:30;12.99;95.65
58781;SHT30;45243;51.548;6.990;2022-07-12T01:49:56;13.00;95.67
58781;SHT30;45243;51.548;6.990;2022-07-12T01:52:22;12.96;95.71
58781;SHT30;45243;51.548;6.990;2022-07-12T01:54:48;12.94;95.75
58781;SHT30;45243;51.548;6.990;2022-07-12T01:57:14;12.93;95.83
58781;SHT30;45243;51.548;6.990;2022-07-12T01:59:39;12.88;95.78
58781;SHT30;45243;51.548;6.990;2022-07-12T02:02:05;12.87;95.82
58781;SHT30;45243;51.548;6.990;2022-07-12T02:04:32;12.87;95.93
58781;SHT30;45243;51.548;6.990;2022-07-12T02:06:58;12.85;95.94
58781;SHT30;45243;51.548;6.990;2022-07-12T02:09:23;12.83;95.87
58781;SHT30;45243;51.548;6.990;2022-07-12T02:11:49;12.81;95.89
58781;SHT30;45243;51.548;6.990;2022-07-12T02:14:15;12.79;95.90
58781;SHT30;45243;51.548;6.990;2022-07-12T02:16:42;12.73;95.85
58781;SHT30;45243;51.548;6.990;2022-07-12T02:19:08;12.76;95.91
58781;SHT30;45243;51.548;6.990;2022-07-12T02:21:37;12.70;95.82
58781;SHT30;45243;51.548;6.990;2022-07-12T02:24:02;12.67;95.87
58781;SHT30;45243;51.548;6.990;2022-07-12T02:26:28;12.66;95.85
58781;SHT30;45243;51.548;6.990;2022-07-12T02:28:54;12.65;95.93
58781;SHT30;45243;51.548;6.990;2022-07-12T02:31:19;12.63;95.90
58781;SHT30;45243;51.548;6.990;2022-07-12T02:33:44;12.60;95.93
58781;SHT30;45243;51.548;6.990;2022-07-12T02:36:10;12.62;95.99
58781;SHT30;45243;51.548;6.990;2022-07-12T02:41:03;12.60;96.10
58781;SHT30;45243;51.548;6.990;2022-07-12T02:43:29;12.56;96.10
58781;SHT30;45243;51.548;6.990;2022-07-12T02:46:02;12.56;96.03
58781;SHT30;45243;51.548;6.990;2022-07-12T02:48:29;12.55;95.99
58781;SHT30;45243;51.548;6.990;2022-07-12T02:50:54;12.53;95.98
58781;SHT30;45243;51.548;6.990;2022-07-12T02:53:20;12.53;95.94
58781;SHT30;45243;51.548;6.990;2022-07-12T02:55:45;12.49;95.90
58781;SHT30;45243;51.548;6.990;2022-07-12T02:58:11;12.45;95.96
58781;SHT30;45243;51.548;6.990;2022-07-12T03:00:39;12.42;96.00
58781;SHT30;45243;51.548;6.990;2022-07-12T03:03:06;12.44;95.97
58781;SHT30;45243;51.548;6.990;2022-07-12T03:05:34;12.41;95.98
58781;SHT30;45243;51.548;6.990;2022-07-12T03:08:00;12.39;96.00
58781;SHT30;45243;51.548;6.990;2022-07-12T03:10:27;12.35;95.97
58781;SHT30;45243;51.548;6.990;2022-07-12T03:15:20;12.36;96.10
58781;SHT30;45243;51.548;6.990;2022-07-12T03:17:45;12.32;96.20
58781;SHT30;45243;51.548;6.990;2022-07-12T03:20:11;12.32;96.26
58781;SHT30;45243;51.548;6.990;2022-07-12T03:22:39;12.29;96.18
58781;SHT30;45243;51.548;6.990;2022-07-12T03:25:09;12.31;96.25
58781;SHT30;45243;51.548;6.990;2022-07-12T03:27:35;12.26;96.18
58781;SHT30;45243;51.548;6.990;2022-07-12T03:30:00;12.22;96.18
58781;SHT30;45243;51.548;6.990;2022-07-12T03:32:26;12.21;96.19
58781;SHT30;45243;51.548;6.990;2022-07-12T03:34:51;12.11;95.81
58781;SHT30;45243;51.548;6.990;2022-07-12T03:37:17;12.08;95.77
58781;SHT30;45243;51.548;6.990;2022-07-12T03:39:42;12.07;95.84
58781;SHT30;45243;51.548;6.990;2022-07-12T03:42:08;12.04;95.79
58781;SHT30;45243;51.548;6.990;2022-07-12T03:44:33;12.05;95.70
58781;SHT30;45243;51.548;6.990;2022-07-12T03:46:59;12.04;95.71
58781;SHT30;45243;51.548;6.990;2022-07-12T03:49:24;12.01;95.76
58781;SHT30;45243;51.548;6.990;2022-07-12T03:51:50;12.02;95.74
58781;SHT30;45243;51.548;6.990;2022-07-12T03:54:15;12.02;95.86
58781;SHT30;45243;51.548;6.990;2022-07-12T03:56:41;12.04;95.89
58781;SHT30;45243;51.548;6.990;2022-07-12T03:59:25;12.04;95.95
58781;SHT30;45243;51.548;6.990;2022-07-12T04:01:50;12.08;96.05
58781;SHT30;45243;51.548;6.990;2022-07-12T04:04:15;12.09;96.05
58781;SHT30;45243;51.548;6.990;2022-07-12T04:06:41;12.15;96.06
58781;SHT30;45243;51.548;6.990;2022-07-12T04:09:06;12.14;96.08
58781;SHT30;45243;51.548;6.990;2022-07-12T04:11:32;12.17;96.14
58781;SHT30;45243;51.548;6.990;2022-07-12T04:13:58;12.20;96.20
58781;SHT30;45243;51.548;6.990;2022-07-12T04:16:23;12.20;96.24
58781;SHT30;45243;51.548;6.990;2022-07-12T04:18:49;12.26;96.25
58781;SHT30;45243;51.548;6.990;2022-07-12T04:21:15;12.26;96.21
58781;SHT30;45243;51.548;6.990;2022-07-12T04:23:40;12.29;96.22
58781;SHT30;45243;51.548;6.990;2022-07-12T04:26:06;12.32;96.27
58781;SHT30;45243;51.548;6.990;2022-07-12T04:28:31;12.38;96.24
58781;SHT30;45243;51.548;6.990;2022-07-12T04:30:56;12.41;96.23
58781;SHT30;45243;51.548;6.990;2022-07-12T04:33:22;12.45;96.17
58781;SHT30;45243;51.548;6.990;2022-07-12T04:35:48;12.48;96.24
58781;SHT30;45243;51.548;6.990;2022-07-12T04:38:13;12.53;96.25
58781;SHT30;45243;51.548;6.990;2022-07-12T04:40:38;12.56;96.16
58781;SHT30;45243;51.548;6.990;2022-07-12T04:43:04;12.62;96.15
58781;SHT30;45243;51.548;6.990;2022-07-12T04:45:29;12.66;96.04
58781;SHT30;45243;51.548;6.990;2022-07-12T04:47:54;12.70;95.96
58781;SHT30;45243;51.548;6.990;2022-07-12T04:50:20;12.77;95.88
58781;SHT30;45243;51.548;6.990;2022-07-12T04:52:45;12.84;95.82
58781;SHT30;45243;51.548;6.990;2022-07-12T04:55:10;12.90;95.86
58781;SHT30;45243;51.548;6.990;2022-07-12T04:57:36;12.96;95.88
58781;SHT30;45243;51.548;6.990;2022-07-12T05:00:02;13.03;95.81
58781;SHT30;45243;51.548;6.990;2022-07-12T05:02:29;13.07;95.79
58781;SHT30;45243;51.548;6.990;2022-07-12T05:04:54;13.18;95.78
58781;SHT30;45243;51.548;6.990;2022-07-12T05:07:20;13.28;96.12
58781;SHT30;45243;51.548;6.990;2022-07-12T05:09:45;13.32;95.93
58781;SHT30;45243;51.548;6.990;2022-07-12T05:12:11;13.35;95.72
58781;SHT30;45243;51.548;6.990;2022-07-12T05:14:36;13.42;95.61
58781;SHT30;45243;51.548;6.990;2022-07-12T05:17:01;13.55;95.82
58781;SHT30;45243;51.548;6.990;2022-07-12T05:19:27;13.70;96.13
58781;SHT30;45243;51.548;6.990;2022-07-12T05:21:52;13.87;96.45
58781;SHT30;45243;51.548;6.990;2022-07-12T05:24:17;14.03;96.67
58781;SHT30;45243;51.548;6.990;2022-07-12T05:26:43;14.16;96.67
58781;SHT30;45243;51.548;6.990;2022-07-12T05:29:08;14.28;96.74
58781;SHT30;45243;51.548;6.990;2022-07-12T05:31:34;14.51;97.08
58781;SHT30;45243;51.548;6.990;2022-07-12T05:34:00;14.59;96.85
58781;SHT30;45243;51.548;6.990;2022-07-12T05:36:25;14.69;96.90
58781;SHT30;45243;51.548;6.990;2022-07-12T05:38:51;14.85;97.04
58781;SHT30;45243;51.548;6.990;2022-07-12T05:41:16;15.00;97.09
58781;SHT30;45243;51.548;6.990;2022-07-12T05:43:42;15.13;97.21
58781;SHT30;45243;51.548;6.990;2022-07-12T05:46:08;15.28;97.27
58781;SHT30;45243;51.548;6.990;2022-07-12T05:48:34;15.37;97.12
58781;SHT30;45243;51.548;6.990;2022-07-12T05:50:59;15.50;97.21
58781;SHT30;45243;51.548;6.990;2022-07-12T05:53:45;15.57;96.74
58781;SHT30;45243;51.548;6.990;2022-07-12T05:56:10;15.66;96.80
58781;SHT30;45243;51.548;6.990;2022-07-12T05:58:36;15.86;96.82
58781;SHT30;45243;51.548;6.990;2022-07-12T06:01:01;16.00;96.63
58781;SHT30;45243;51.548;6.990;2022-07-12T06:03:26;16.13;96.41
58781;SHT30;45243;51.548;6.990;2022-07-12T06:05:52;16.26;96.33
58781;SHT30;45243;51.548;6.990;2022-07-12T06:08:17;16.41;96.07
58781;SHT30;45243;51.548;6.990;2022-07-12T06:10:42;16.52;95.94
58781;SHT30;45243;51.548;6.990;2022-07-12T06:13:08;16.61;95.84
58781;SHT30;45243;51.548;6.990;2022-07-12T06:15:34;16.78;95.69
58781;SHT30;45243;51.548;6.990;2022-07-12T06:18:00;16.89;95.44
58781;SHT30;45243;51.548;6.990;2022-07-12T06:20:26;16.98;94.48
58781;SHT30;45243;51.548;6.990;2022-07-12T06:22:52;17.12;93.58
58781;SHT30;45243;51.548;6.990;2022-07-12T06:25:17;17.31;93.43
58781;SHT30;45243;51.548;6.990;2022-07-12T06:27:42;17.41;92.85
58781;SHT30;45243;51.548;6.990;2022-07-12T06:30:08;17.51;92.73
58781;SHT30;45243;51.548;6.990;2022-07-12T06:32:33;17.63;92.59
58781;SHT30;45243;51.548;6.990;2022-07-12T06:34:59;17.70;92.44
58781;SHT30;45243;51.548;6.990;2022-07-12T06:37:24;17.77;92.39
58781;SHT30;45243;51.548;6.990;2022-07-12T06:39:49;17.82;91.98
58781;SHT30;45243;51.548;6.990;2022-07-12T06:42:15;17.91;91.93
58781;SHT30;45243;51.548;6.990;2022-07-12T06:44:40;18.03;91.76
58781;SHT30;45243;51.548;6.990;2022-07-12T06:47:05;18.13;90.88
58781;SHT30;45243;51.548;6.990;2022-07-12T06:49:31;18.24;90.42
58781;SHT30;45243;51.548;6.990;2022-07-12T06:51:56;18.43;89.46
58781;SHT30;45243;51.548;6.990;2022-07-12T06:54:21;18.47;89.76
58781;SHT30;45243;51.548;6.990;2022-07-12T06:56:47;18.51;89.00
58781;SHT30;45243;51.548;6.990;2022-07-12T06:59:12;18.63;88.71
58781;SHT30;45243;51.548;6.990;2022-07-12T07:01:37;18.65;89.06
58781;SHT30;45243;51.548;6.990;2022-07-12T07:04:03;18.78;89.14
58781;SHT30;45243;51.548;6.990;2022-07-12T07:06:29;18.87;89.02
58781;SHT30;45243;51.548;6.990;2022-07-12T07:08:54;19.02;88.32
58781;SHT30;45243;51.548;6.990;2022-07-12T07:11:19;19.09;88.18
58781;SHT30;45243;51.548;6.990;2022-07-12T07:13:45;19.10;88.34
58781;SHT30;45243;51.548;6.990;2022-07-12T07:16:10;19.23;87.61
58781;SHT30;45243;51.548;6.990;2022-07-12T07:18:36;19.37;86.34
58781;SHT30;45243;51.548;6.990;2022-07-12T07:21:01;19.54;85.54
58781;SHT30;45243;51.548;6.990;2022-07-12T07:23:26;19.73;84.89
58781;SHT30;45243;51.548;6.990;2022-07-12T07:25:52;19.86;83.84
58781;SHT30;45243;51.548;6.990;2022-07-12T07:28:17;19.98;83.49
58781;SHT30;45243;51.548;6.990;2022-07-12T07:30:42;20.16;81.71
58781;SHT30;45243;51.548;6.990;2022-07-12T07:33:17;20.36;81.67
58781;SHT30;45243;51.548;6.990;2022-07-12T07:35:42;20.49;81.41
58781;SHT30;45243;51.548;6.990;2022-07-12T07:38:08;20.59;80.70
58781;SHT30;45243;51.548;6.990;2022-07-12T07:40:34;20.59;81.46
58781;SHT30;45243;51.548;6.990;2022-07-12T07:43:00;20.60;79.61
58781;SHT30;45243;51.548;6.990;2022-07-12T07:45:25;20.66;81.37
58781;SHT30;45243;51.548;6.990;2022-07-12T07:47:50;20.56;79.49
58781;SHT30;45243;51.548;6.990;2022-07-12T07:50:16;20.63;80.82
58781;SHT30;45243;51.548;6.990;2022-07-12T07:52:41;20.70;80.76
58781;SHT30;45243;51.548;6.990;2022-07-12T07:55:07;20.79;80.01
58781;SHT30;45243;51.548;6.990;2022-07-12T07:57:33;20.85;78.85
58781;SHT30;45243;51.548;6.990;2022-07-12T07:59:58;21.05;78.63
58781;SHT30;45243;51.548;6.990;2022-07-12T08:02:23;21.18;78.03
58781;SHT30;45243;51.548;6.990;2022-07-12T08:04:49;21.35;77.33
58781;SHT30;45243;51.548;6.990;2022-07-12T08:07:14;21.43;76.73
58781;SHT30;45243;51.548;6.990;2022-07-12T08:09:39;21.52;75.22
58781;SHT30;45243;51.548;6.990;2022-07-12T08:12:05;21.50;77.44
58781;SHT30;45243;51.548;6.990;2022-07-12T08:14:30;21.50;77.08
58781;SHT30;45243;51.548;6.990;2022-07-12T08:16:56;21.57;74.63
58781;SHT30;45243;51.548;6.990;2022-07-12T08:19:21;21.65;75.78
58781;SHT30;45243;51.548;6.990;2022-07-12T08:21:47;21.57;75.92
58781;SHT30;45243;51.548;6.990;2022-07-12T08:24:12;21.70;76.49
58781;SHT30;45243;51.548;6.990;2022-07-12T08:26:37;21.78;73.87
58781;SHT30;45243;51.548;6.990;2022-07-12T08:29:02;22.01;74.32
58781;SHT30;45243;51.548;6.990;2022-07-12T08:31:28;22.20;71.86
58781;SHT30;45243;51.548;6.990;2022-07-12T08:33:53;22.21;72.36
58781;SHT30;45243;51.548;6.990;2022-07-12T08:36:19;22.17;71.90
58781;SHT30;45243;51.548;6.990;2022-07-12T08:38:44;22.29;74.01
58781;SHT30;45243;51.548;6.990;2022-07-12T08:41:13;22.38;73.95
58781;SHT30;45243;51.548;6.990;2022-07-12T08:43:39;22.56;72.12
58781;SHT30;45243;51.548;6.990;2022-07-12T08:46:11;22.75;70.40
58781;SHT30;45243;51.548;6.990;2022-07-12T08:48:39;22.94;69.89
58781;SHT30;45243;51.548;6.990;2022-07-12T08:51:07;23.10;70.05
58781;SHT30;45243;51.548;6.990;2022-07-12T08:53:42;23.30;68.88
58781;SHT30;45243;51.548;6.990;2022-07-12T08:56:08;23.47;68.48
58781;SHT30;45243;51.548;6.990;2022-07-12T09:01:43;23.62;70.22
58781;SHT30;45243;51.548;6.990;2022-07-12T09:04:13;23.23;70.12
58781;SHT30;45243;51.548;6.990;2022-07-12T09:06:41;22.86;71.86
58781;SHT30;45243;51.548;6.990;2022-07-12T09:09:06;22.86;71.52
58781;SHT30;45243;51.548;6.990;2022-07-12T09:11:34;22.97;74.61
58781;SHT30;45243;51.548;6.990;2022-07-12T09:14:00;23.26;71.48
58781;SHT30;45243;51.548;6.990;2022-07-12T09:16:27;23.52;68.52
58781;SHT30;45243;51.548;6.990;2022-07-12T09:21:45;23.88;69.50
58781;SHT30;45243;51.548;6.990;2022-07-12T09:24:18;24.51;68.25
58781;SHT30;45243;51.548;6.990;2022-07-12T09:26:44;24.89;65.60
58781;SHT30;45243;51.548;6.990;2022-07-12T09:29:11;24.98;65.06
58781;SHT30;45243;51.548;6.990;2022-07-12T09:31:46;25.06;65.40
58781;SHT30;45243;51.548;6.990;2022-07-12T09:34:31;25.20;63.62
58781;SHT30;45243;51.548;6.990;2022-07-12T09:37:15;25.18;63.50
58781;SHT30;45243;51.548;6.990;2022-07-12T09:39:41;25.20;61.88
58781;SHT30;45243;51.548;6.990;2022-07-12T09:42:07;25.31;60.93
58781;SHT30;45243;51.548;6.990;2022-07-12T09:44:35;25.33;60.96
58781;SHT30;45243;51.548;6.990;2022-07-12T09:47:01;25.41;59.02
58781;SHT30;45243;51.548;6.990;2022-07-12T09:49:27;25.23;60.71
58781;SHT30;45243;51.548;6.990;2022-07-12T09:51:54;25.51;60.16
58781;SHT30;45243;51.548;6.990;2022-07-12T09:54:27;25.71;59.78
58781;SHT30;45243;51.548;6.990;2022-07-12T09:56:54;25.74;59.64
58781;SHT30;45243;51.548;6.990;2022-07-12T09:59:23;25.85;62.19
58781;SHT30;45243;51.548;6.990;2022-07-12T10:01:52;25.58;56.09
58781;SHT30;45243;51.548;6.990;2022-07-12T10:04:21;25.58;57.33
58781;SHT30;45243;51.548;6.990;2022-07-12T10:06:47;25.73;56.74
58781;SHT30;45243;51.548;6.990;2022-07-12T10:09:16;25.48;56.12
58781;SHT30;45243;51.548;6.990;2022-07-12T10:11:42;25.44;57.20
58781;SHT30;45243;51.548;6.990;2022-07-12T10:14:10;25.51;58.97
58781;SHT30;45243;51.548;6.990;2022-07-12T10:16:37;25.23;59.59
58781;SHT30;45243;51.548;6.990;2022-07-12T10:19:22;25.13;59.80
58781;SHT30;45243;51.548;6.990;2022-07-12T10:21:49;25.29;58.37
58781;SHT30;45243;51.548;6.990;2022-07-12T10:26:55;25.56;56.97
58781;SHT30;45243;51.548;6.990;2022-07-12T10:29:21;25.71;56.82
58781;SHT30;45243;51.548;6.990;2022-07-12T10:31:47;25.86;55.94
58781;SHT30;45243;51.548;6.990;2022-07-12T10:39:24;26.16;54.69
58781;SHT30;45243;51.548;6.990;2022-07-12T10:44:38;26.32;56.56
58781;SHT30;45243;51.548;6.990;2022-07-12T10:47:05;26.67;55.35
58781;SHT30;45243;51.548;6.990;2022-07-12T10:49:32;26.65;58.50
58781;SHT30;45243;51.548;6.990;2022-07-12T10:54:35;27.11;53.09
58781;SHT30;45243;51.548;6.990;2022-07-12T10:57:07;27.42;53.92
58781;SHT30;45243;51.548;6.990;2022-07-12T10:59:34;27.60;52.87
58781;SHT30;45243;51.548;6.990;2022-07-12T11:02:01;27.97;53.02
58781;SHT30;45243;51.548;6.990;2022-07-12T11:04:27;28.15;53.89
58781;SHT30;45243;51.548;6.990;2022-07-12T11:06:53;27.90;52.74
58781;SHT30;45243;51.548;6.990;2022-07-12T11:09:24;28.14;53.34
58781;SHT30;45243;51.548;6.990;2022-07-12T11:11:51;28.36;52.81
58781;SHT30;45243;51.548;6.990;2022-07-12T11:14:23;28.49;52.92
58781;SHT30;45243;51.548;6.990;2022-07-12T11:16:51;28.73;49.51
58781;SHT30;45243;51.548;6.990;2022-07-12T11:19:21;28.91;48.93
58781;SHT30;45243;51.548;6.990;2022-07-12T11:21:54;29.56;47.96
58781;SHT30;45243;51.548;6.990;2022-07-12T11:24:21;30.41;47.55
58781;SHT30;45243;51.548;6.990;2022-07-12T11:26:47;30.64;45.80
58781;SHT30;45243;51.548;6.990;2022-07-12T11:29:13;30.17;45.32
58781;SHT30;45243;51.548;6.990;2022-07-12T11:31:39;30.41;47.30
58781;SHT30;45243;51.548;6.990;2022-07-12T11:34:04;30.57;47.38
58781;SHT30;45243;51.548;6.990;2022-07-12T11:36:30;30.16;45.23
58781;SHT30;45243;51.548;6.990;2022-07-12T11:38:57;30.09;45.36
58781;SHT30;45243;51.548;6.990;2022-07-12T11:41:22;30.21;45.83
58781;SHT30;45243;51.548;6.990;2022-07-12T11:43:49;29.37;45.32
58781;SHT30;45243;51.548;6.990;2022-07-12T11:46:15;28.94;49.36
58781;SHT30;45243;51.548;6.990;2022-07-12T11:48:41;29.28;48.70
58781;SHT30;45243;51.548;6.990;2022-07-12T11:51:08;29.62;48.24
58781;SHT30;45243;51.548;6.990;2022-07-12T11:53:40;29.20;46.05
58781;SHT30;45243;51.548;6.990;2022-07-12T11:56:06;29.48;48.86
58781;SHT30;45243;51.548;6.990;2022-07-12T11:58:33;29.76;45.95
58781;SHT30;45243;51.548;6.990;2022-07-12T12:01:02;29.28;45.65
58781;SHT30;45243;51.548;6.990;2022-07-12T12:03:28;29.31;45.12
58781;SHT30;45243;51.548;6.990;2022-07-12T12:05:55;29.23;45.91
58781;SHT30;45243;51.548;6.990;2022-07-12T12:08:22;29.27;48.45
58781;SHT30;45243;51.548;6.990;2022-07-12T12:10:55;29.41;47.31
58781;SHT30;45243;51.548;6.990;2022-07-12T12:13:22;29.24;46.90
58781;SHT30;45243;51.548;6.990;2022-07-12T12:15:56;29.24;50.05
58781;SHT30;45243;51.548;6.990;2022-07-12T12:21:08;28.51;50.79
58781;SHT30;45243;51.548;6.990;2022-07-12T12:23:36;29.01;49.11
58781;SHT30;45243;51.548;6.990;2022-07-12T12:28:41;29.38;44.59
58781;SHT30;45243;51.548;6.990;2022-07-12T12:31:12;29.65;47.59
58781;SHT30;45243;51.548;6.990;2022-07-12T12:33:39;29.79;43.12
58781;SHT30;45243;51.548;6.990;2022-07-12T12:36:16;30.04;45.29
58781;SHT30;45243;51.548;6.990;2022-07-12T12:38:43;30.18;43.88
58781;SHT30;45243;51.548;6.990;2022-07-12T12:41:10;29.65;43.88
58781;SHT30;45243;51.548;6.990;2022-07-12T12:43:37;29.77;43.72
58781;SHT30;45243;51.548;6.990;2022-07-12T12:46:04;29.70;41.67
58781;SHT30;45243;51.548;6.990;2022-07-12T12:48:30;29.82;42.48
58781;SHT30;45243;51.548;6.990;2022-07-12T12:51:09;30.14;42.82
58781;SHT30;45243;51.548;6.990;2022-07-12T12:53:39;30.50;42.84
58781;SHT30;45243;51.548;6.990;2022-07-12T12:58:35;30.00;43.54
58781;SHT30;45243;51.548;6.990;2022-07-12T13:01:01;29.79;43.57
58781;SHT30;45243;51.548;6.990;2022-07-12T13:03:27;30.12;45.06
58781;SHT30;45243;51.548;6.990;2022-07-12T13:05:53;30.47;42.84
58781;SHT30;45243;51.548;6.990;2022-07-12T13:08:19;30.31;41.21
58781;SHT30;45243;51.548;6.990;2022-07-12T13:10:45;30.37;43.96
58781;SHT30;45243;51.548;6.990;2022-07-12T13:13:11;30.44;44.19
58781;SHT30;45243;51.548;6.990;2022-07-12T13:15:38;30.37;40.60
58781;SHT30;45243;51.548;6.990;2022-07-12T13:18:04;29.99;44.30
58781;SHT30;45243;51.548;6.990;2022-07-12T13:20:30;30.28;45.20
58781;SHT30;45243;51.548;6.990;2022-07-12T13:22:56;30.40;42.83
58781;SHT30;45243;51.548;6.990;2022-07-12T13:25:21;30.57;44.09
58781;SHT30;45243;51.548;6.990;2022-07-12T13:27:47;30.44;42.09
58781;SHT30;45243;51.548;6.990;2022-07-12T13:30:14;30.51;47.21
58781;SHT30;45243;51.548;6.990;2022-07-12T13:32:40;30.51;44.78
58781;SHT30;45243;51.548;6.990;2022-07-12T13:35:07;30.37;41.92
58781;SHT30;45243;51.548;6.990;2022-07-12T13:37:34;30.52;45.41
58781;SHT30;45243;51.548;6.990;2022-07-12T13:40:00;30.79;43.00
58781;SHT30;45243;51.548;6.990;2022-07-12T13:45:08;30.50;47.22
58781;SHT30;45243;51.548;6.990;2022-07-12T13:47:35;30.75;42.24
58781;SHT30;45243;51.548;6.990;2022-07-12T13:50:01;30.69;44.44
58781;SHT30;45243;51.548;6.990;2022-07-12T13:54:54;30.47;41.18
58781;SHT30;45243;51.548;6.990;2022-07-12T13:57:20;30.31;41.74
58781;SHT30;45243;51.548;6.990;2022-07-12T13:59:45;30.54;40.63
58781;SHT30;45243;51.548;6.990;2022-07-12T14:02:10;30.34;43.33
58781;SHT30;45243;51.548;6.990;2022-07-12T14:04:37;30.03;43.26
58781;SHT30;45243;51.548;6.990;2022-07-12T14:07:03;30.12;43.43
58781;SHT30;45243;51.548;6.990;2022-07-12T14:09:28;30.45;44.16
58781;SHT30;45243;51.548;6.990;2022-07-12T14:11:53;29.73;45.08
58781;SHT30;45243;51.548;6.990;2022-07-12T14:14:19;29.93;48.21
58781;SHT30;45243;51.548;6.990;2022-07-12T14:17:04;30.33;41.74
58781;SHT30;45243;51.548;6.990;2022-07-12T14:19:30;30.28;47.00
58781;SHT30;45243;51.548;6.990;2022-07-12T14:24:25;30.10;42.58
58781;SHT30;45243;51.548;6.990;2022-07-12T14:26:50;30.37;44.92
58781;SHT30;45243;51.548;6.990;2022-07-12T14:29:15;30.20;43.42
58781;SHT30;45243;51.548;6.990;2022-07-12T14:31:41;30.13;40.65
58781;SHT30;45243;51.548;6.990;2022-07-12T14:34:06;30.17;44.48
58781;SHT30;45243;51.548;6.990;2022-07-12T14:36:34;29.97;42.22
58781;SHT30;45243;51.548;6.990;2022-07-12T14:38:59;30.25;42.55
58781;SHT30;45243;51.548;6.990;2022-07-12T14:41:25;30.30;44.76
58781;SHT30;45243;51.548;6.990;2022-07-12T14:43:54;29.95;43.14
58781;SHT30;45243;51.548;6.990;2022-07-12T14:46:19;29.77;44.59
58781;SHT30;45243;51.548;6.990;2022-07-12T14:48:44;29.72;47.14
58781;SHT30;45243;51.548;6.990;2022-07-12T14:51:10;29.55;46.69
58781;SHT30;45243;51.548;6.990;2022-07-12T14:53:35;29.33;45.91
58781;SHT30;45243;51.548;6.990;2022-07-12T14:56:01;29.18;47.16
58781;SHT30;45243;51.548;6.990;2022-07-12T14:58:26;29.11;47.99
58781;SHT30;45243;51.548;6.990;2022-07-12T15:00:54;29.23;46.66
58781;SHT30;45243;51.548;6.990;2022-07-12T15:03:20;29.31;48.80
58781;SHT30;45243;51.548;6.990;2022-07-12T15:05:45;29.42;46.25
58781;SHT30;45243;51.548;6.990;2022-07-12T15:08:11;29.44;48.68
58781;SHT30;45243;51.548;6.990;2022-07-12T15:10:37;29.17;45.82
58781;SHT30;45243;51.548;6.990;2022-07-12T15:13:02;28.82;46.46
58781;SHT30;45243;51.548;6.990;2022-07-12T15:15:27;29.06;48.34
58781;SHT30;45243;51.548;6.990;2022-07-12T15:17:53;28.96;46.11
58781;SHT30;45243;51.548;6.990;2022-07-12T15:20:18;28.70;48.46
58781;SHT30;45243;51.548;6.990;2022-07-12T15:22:44;28.66;47.83
58781;SHT30;45243;51.548;6.990;2022-07-12T15:25:09;28.59;49.02
58781;SHT30;45243;51.548;6.990;2022-07-12T15:27:34;28.41;49.27
58781;SHT30;45243;51.548;6.990;2022-07-12T15:30:00;28.35;50.70
58781;SHT30;45243;51.548;6.990;2022-07-12T15:32:25;28.24;47.89
58781;SHT30;45243;51.548;6.990;2022-07-12T15:34:51;28.36;46.59
58781;SHT30;45243;51.548;6.990;2022-07-12T15:37:17;28.38;48.00
58781;SHT30;45243;51.548;6.990;2022-07-12T15:39:42;28.39;47.27
58781;SHT30;45243;51.548;6.990;2022-07-12T15:42:07;28.21;49.88
58781;SHT30;45243;51.548;6.990;2022-07-12T15:44:34;28.17;47.29
58781;SHT30;45243;51.548;6.990;2022-07-12T15:46:59;28.15;48.32
58781;SHT30;45243;51.548;6.990;2022-07-12T15:49:24;28.07;49.39
58781;SHT30;45243;51.548;6.990;2022-07-12T15:51:50;28.05;46.76
58781;SHT30;45243;51.548;6.990;2022-07-12T15:54:34;28.05;47.10
58781;SHT30;45243;51.548;6.990;2022-07-12T15:56:59;28.15;47.56
58781;SHT30;45243;51.548;6.990;2022-07-12T15:59:25;28.31;47.67
58781;SHT30;45243;51.548;6.990;2022-07-12T16:01:50;28.28;48.90
58781;SHT30;45243;51.548;6.990;2022-07-12T16:04:15;28.28;50.62